Southern Lily — 9VJK4 — position and weather

sailwx.info

Track history (hours):
 
Tides and Currents Weather Stations Pressure Air Temp Water Temp Dewpoint Dewpoint Depression Visibility Wind Speed Wind Dir Waves Ship Positions

Southern Lily

Last reported at 2016-Jan-29 15:24 UTC. Time now 2016-Feb-07 23:58 UTC.
Position S 36°17' E 174°58'.
Warning: this ship's position is 9 days out of date.

Length 146 m; draft 7.6 m.

Type: Cargo ship. MMSI: 565050000.

Date/timePositionNaut miles runAvg speedWind from/ knotsBaromVisibWave heightAir tempDewpointWater temp
2016-Jan-29 15:24S 36°17' E 174°58'8 9.5
2016-Jan-29 14:33S 36°25' E 174°60'9 9.0
2016-Jan-29 13:33S 36°34' E 174°59'9 8.7
2016-Jan-29 12:32S 36°42' E 174°53'7 7.5
2016-Jan-29 11:33S 36°48' E 174°49'3 2.9
2016-Jan-29 10:27S 36°51' E 174°47'0 0.0
2016-Jan-29 09:33S 36°51' E 174°47'0 0.0
2016-Jan-29 08:33S 36°51' E 174°47'0 0.0
2016-Jan-29 07:33S 36°51' E 174°47'0 0.0
2016-Jan-29 06:33S 36°51' E 174°47'0 0.0
2016-Jan-29 05:27S 36°51' E 174°47'0 0.0
2016-Jan-29 04:33S 36°51' E 174°47'0 0.0
2016-Jan-29 03:33S 36°51' E 174°47'0 0.0
2016-Jan-29 02:33S 36°51' E 174°47'0 0.0
2016-Jan-29 01:33S 36°51' E 174°47'0 0.0
2016-Jan-29 00:33S 36°51' E 174°47'0 0.0
2016-Jan-28 23:27S 36°51' E 174°47'0 0.0
2016-Jan-28 22:33S 36°51' E 174°47'0 0.0
2016-Jan-28 21:33S 36°51' E 174°47'0 0.0
2016-Jan-28 20:27S 36°51' E 174°47'0 0.0
2016-Jan-28 19:33S 36°51' E 174°47'0 0.0
2016-Jan-28 18:33S 36°51' E 174°47'0 0.0
2016-Jan-28 17:33S 36°51' E 174°47'0 0.0
2016-Jan-28 16:33S 36°51' E 174°47'0 0.0
2016-Jan-28 15:33S 36°51' E 174°47'0 0.0
2016-Jan-28 14:33S 36°51' E 174°47'0 0.0
2016-Jan-28 13:27S 36°51' E 174°47'0 0.0
2016-Jan-28 12:27S 36°51' E 174°47'0 0.0
2016-Jan-28 11:33S 36°51' E 174°47'0 0.0
2016-Jan-28 10:33S 36°51' E 174°47'0 0.0
2016-Jan-28 09:33S 36°51' E 174°47'0 0.0
2016-Jan-28 08:33S 36°51' E 174°47'0 0.1
2016-Jan-28 07:33S 36°51' E 174°47'0 0.0
2016-Jan-28 06:33S 36°51' E 174°47'0 0.0
2016-Jan-28 05:33S 36°51' E 174°47'0 0.0
2016-Jan-28 04:33S 36°51' E 174°47'0 0.0
2016-Jan-28 03:33S 36°51' E 174°47'0 0.0
2016-Jan-28 02:21S 36°51' E 174°47'0 0.0
2016-Jan-28 01:33S 36°51' E 174°47'0 0.0
2016-Jan-28 00:27S 36°51' E 174°47'0 0.0
2016-Jan-27 22:21S 36°51' E 174°47'0 0.0
2016-Jan-27 21:27S 36°51' E 174°47'0 0.0
2016-Jan-27 20:27S 36°51' E 174°47'0 0.0
2016-Jan-27 19:33S 36°51' E 174°47'0 0.0
2016-Jan-27 18:33S 36°51' E 174°47'0 0.0
2016-Jan-27 17:33S 36°51' E 174°47'0 0.0
2016-Jan-27 16:21S 36°51' E 174°47'0 0.0
2016-Jan-27 15:33S 36°51' E 174°47'0 0.0
2016-Jan-27 14:33S 36°51' E 174°47'0 0.0
2016-Jan-27 13:33S 36°51' E 174°47'0 0.0
2016-Jan-27 12:33S 36°51' E 174°47'0 0.0
2016-Jan-27 11:09S 36°51' E 174°47'0 0.0
2016-Jan-27 10:15S 36°51' E 174°47'1 1.5
2016-Jan-27 09:33S 36°50' E 174°48'1111.3
2016-Jan-27 08:33S 36°40' E 174°54'9 8.6
2016-Jan-27 07:33S 36°32' E 174°58'10 9.5
2016-Jan-27 06:33S 36°23' E 174°58'9 9.2
2016-Jan-27 05:33S 36°14' E 174°58'  
Track history (hours):
 
Tides and Currents Weather Stations Pressure Air Temp Water Temp Dewpoint Dewpoint Depression Visibility Wind Speed Wind Dir Waves Ship Positions

Southern Lily

Last reported at 2016-Jan-29 15:24 UTC. Time now 2016-Feb-07 23:58 UTC.
Position S 36°17' E 174°58'.
Warning: this ship's position is 9 days out of date.

Length 146 m; draft 7.6 m.

Type: Cargo ship. MMSI: 565050000.

Date/timePositionNaut miles runAvg speedWind from/ knotsBaromVisibWave heightAir tempDewpointWater temp
2016-Jan-29 15:24S 36°17' E 174°58'8 9.5
2016-Jan-29 14:33S 36°25' E 174°60'9 9.0
2016-Jan-29 13:33S 36°34' E 174°59'9 8.7
2016-Jan-29 12:32S 36°42' E 174°53'7 7.5
2016-Jan-29 11:33S 36°48' E 174°49'3 2.9
2016-Jan-29 10:27S 36°51' E 174°47'0 0.0
2016-Jan-29 09:33S 36°51' E 174°47'0 0.0
2016-Jan-29 08:33S 36°51' E 174°47'0 0.0
2016-Jan-29 07:33S 36°51' E 174°47'0 0.0
2016-Jan-29 06:33S 36°51' E 174°47'0 0.0
2016-Jan-29 05:27S 36°51' E 174°47'0 0.0
2016-Jan-29 04:33S 36°51' E 174°47'0 0.0
2016-Jan-29 03:33S 36°51' E 174°47'0 0.0
2016-Jan-29 02:33S 36°51' E 174°47'0 0.0
2016-Jan-29 01:33S 36°51' E 174°47'0 0.0
2016-Jan-29 00:33S 36°51' E 174°47'0 0.0
2016-Jan-28 23:27S 36°51' E 174°47'0 0.0
2016-Jan-28 22:33S 36°51' E 174°47'0 0.0
2016-Jan-28 21:33S 36°51' E 174°47'0 0.0
2016-Jan-28 20:27S 36°51' E 174°47'0 0.0
2016-Jan-28 19:33S 36°51' E 174°47'0 0.0
2016-Jan-28 18:33S 36°51' E 174°47'0 0.0
2016-Jan-28 17:33S 36°51' E 174°47'0 0.0
2016-Jan-28 16:33S 36°51' E 174°47'0 0.0
2016-Jan-28 15:33S 36°51' E 174°47'0 0.0
2016-Jan-28 14:33S 36°51' E 174°47'0 0.0
2016-Jan-28 13:27S 36°51' E 174°47'0 0.0
2016-Jan-28 12:27S 36°51' E 174°47'0 0.0
2016-Jan-28 11:33S 36°51' E 174°47'0 0.0
2016-Jan-28 10:33S 36°51' E 174°47'0 0.0
2016-Jan-28 09:33S 36°51' E 174°47'0 0.0
2016-Jan-28 08:33S 36°51' E 174°47'0 0.1
2016-Jan-28 07:33S 36°51' E 174°47'0 0.0
2016-Jan-28 06:33S 36°51' E 174°47'0 0.0
2016-Jan-28 05:33S 36°51' E 174°47'0 0.0
2016-Jan-28 04:33S 36°51' E 174°47'0 0.0
2016-Jan-28 03:33S 36°51' E 174°47'0 0.0
2016-Jan-28 02:21S 36°51' E 174°47'0 0.0
2016-Jan-28 01:33S 36°51' E 174°47'0 0.0
2016-Jan-28 00:27S 36°51' E 174°47'0 0.0
2016-Jan-27 22:21S 36°51' E 174°47'0 0.0
2016-Jan-27 21:27S 36°51' E 174°47'0 0.0
2016-Jan-27 20:27S 36°51' E 174°47'0 0.0
2016-Jan-27 19:33S 36°51' E 174°47'0 0.0
2016-Jan-27 18:33S 36°51' E 174°47'0 0.0
2016-Jan-27 17:33S 36°51' E 174°47'0 0.0
2016-Jan-27 16:21S 36°51' E 174°47'0 0.0
2016-Jan-27 15:33S 36°51' E 174°47'0 0.0
2016-Jan-27 14:33S 36°51' E 174°47'0 0.0
2016-Jan-27 13:33S 36°51' E 174°47'0 0.0
2016-Jan-27 12:33S 36°51' E 174°47'0 0.0
2016-Jan-27 11:09S 36°51' E 174°47'0 0.0
2016-Jan-27 10:15S 36°51' E 174°47'1 1.5
2016-Jan-27 09:33S 36°50' E 174°48'1111.3
2016-Jan-27 08:33S 36°40' E 174°54'9 8.6
2016-Jan-27 07:33S 36°32' E 174°58'10 9.5
2016-Jan-27 06:33S 36°23' E 174°58'9 9.2
2016-Jan-27 05:33S 36°14' E 174°58'  

Dump ship's entire track history